»·PEaware :: N80991 KSMX-KBFL

N80991 :: KSMX-KBFL

FLIGHT INFORMATION

Flight Status: Arrived
Operator: Privately registered:
United States
More flights under this callsign
Pilot: Sebastian Scharf (15597)
Aircraft: CESSNA 172 SKYHAWK
(C172)
More flights by this aircraft type
Origin: KSMX Santa Maria Pub/Capt Hancock
United States
Destination: KBFL Meadows
United States
More flights between these airports :: More routes between these airports
Route: +
File this flight plan on PilotEdge
Remarks:
Altitude:
(Current/Filed)
9,000ft
Speed:
(Current/Filed)
100kts
Departed: 13-Jun-17 03:26 PM
Arrived: 13-Jun-17 04:10 PM
Distance/Time
Traveled:
76nm/0:44
Distance/Time
To Go:
Arrived

Flight Plot

Page will automatically refresh every two minutes.


Map Options




Map Legend


Flown Route
Filed Route
Departure Airport
Arrival Airport
Navaid (VOR, NDB)
Fix

Horizontal Profiles

Position Reports

Time Latitude Longitude Heading Altitude Ground
Speed
13-Jun-17 14:52 34.899355 -120.449807 46 264ft 0kts
13-Jun-17 14:53 34.899357 -120.449804 46 264ft 0kts
13-Jun-17 14:54 34.899360 -120.449800 50 264ft 0kts
13-Jun-17 14:55 34.899363 -120.449796 49 264ft 0kts
13-Jun-17 14:56 34.899365 -120.449793 50 264ft 0kts
13-Jun-17 14:57 34.899367 -120.449789 52 264ft 0kts
13-Jun-17 14:58 34.899378 -120.449770 58 264ft 0kts
13-Jun-17 14:59 34.899380 -120.449766 60 264ft 0kts
13-Jun-17 15:00 34.899381 -120.449763 60 264ft 0kts
13-Jun-17 15:01 34.899387 -120.449612 113 264ft 0kts
13-Jun-17 15:02 34.899386 -120.449609 113 264ft 0kts
13-Jun-17 15:03 34.899385 -120.449606 113 264ft 0kts
13-Jun-17 15:04 34.899383 -120.449603 113 264ft 0kts
13-Jun-17 15:05 34.899382 -120.449600 113 264ft 0kts
13-Jun-17 15:06 34.899381 -120.449597 113 264ft 0kts
13-Jun-17 15:07 34.899286 -120.449676 278 264ft 0kts
13-Jun-17 15:11 34.899286 -120.449676 278 264ft 0kts
13-Jun-17 15:12 34.899286 -120.449676 278 264ft 0kts
13-Jun-17 15:13 34.899286 -120.449676 278 264ft 0kts
13-Jun-17 15:14 34.899286 -120.449676 278 264ft 0kts
13-Jun-17 15:15 34.899286 -120.449676 278 264ft 0kts
13-Jun-17 15:16 34.899286 -120.449676 278 264ft 0kts
13-Jun-17 15:17 34.899286 -120.449676 278 264ft 0kts
13-Jun-17 15:18 34.899286 -120.449676 278 264ft 0kts
13-Jun-17 15:19 34.899286 -120.449676 278 264ft 0kts
13-Jun-17 15:20 34.899286 -120.449676 278 264ft 0kts
13-Jun-17 15:21 34.899286 -120.449676 278 264ft 0kts
13-Jun-17 15:22 34.899286 -120.449676 278 264ft 0kts
13-Jun-17 15:23 34.899286 -120.449676 278 264ft 0kts
13-Jun-17 15:24 34.899286 -120.449676 278 264ft 0kts
13-Jun-17 15:25 34.893743 -120.445587 189 264ft 0kts
13-Jun-17 15:26 34.893742 -120.445587 189 264ft 0kts
13-Jun-17 15:27 34.892985 -120.445742 228 264ft 15kts
13-Jun-17 15:28 34.904049 -120.458443 320 571ft 83kts
13-Jun-17 15:29 34.923017 -120.451394 56 1217ft 103kts
13-Jun-17 15:30 34.927599 -120.415227 100 1770ft 103kts
13-Jun-17 15:31 34.928000 -120.384574 52 2702ft 69kts
13-Jun-17 15:32 34.940460 -120.363615 71 3122ft 103kts
13-Jun-17 15:33 34.949500 -120.330944 56 3632ft 101kts
13-Jun-17 15:34 34.961450 -120.299793 56 4129ft 101kts
13-Jun-17 15:35 34.973524 -120.268598 57 4622ft 101kts
13-Jun-17 15:36 34.985597 -120.237416 57 5116ft 101kts
13-Jun-17 15:37 34.997611 -120.206358 58 5612ft 100kts
13-Jun-17 15:38 35.009509 -120.175578 58 6105ft 99kts
13-Jun-17 15:39 35.021306 -120.145060 58 6602ft 99kts
13-Jun-17 15:40 35.033053 -120.114566 58 7092ft 98kts
13-Jun-17 15:41 35.044612 -120.084570 59 7493ft 105kts
13-Jun-17 15:42 35.058335 -120.048877 60 7493ft 123kts
13-Jun-17 15:43 35.072990 -120.010647 60 7493ft 124kts
13-Jun-17 15:44 35.087745 -119.972252 61 7486ft 125kts
13-Jun-17 15:45 35.102595 -119.933524 61 7489ft 125kts
13-Jun-17 15:46 35.117452 -119.894823 61 7490ft 126kts
13-Jun-17 15:47 35.132300 -119.856068 61 7490ft 125kts
13-Jun-17 15:48 35.147089 -119.817353 62 7497ft 125kts
13-Jun-17 15:49 35.161806 -119.778781 62 7498ft 125kts
13-Jun-17 15:50 35.176477 -119.740272 62 7504ft 125kts
13-Jun-17 15:51 35.191204 -119.701589 62 7508ft 125kts
13-Jun-17 15:52 35.205892 -119.662975 62 7508ft 125kts
13-Jun-17 15:53 35.220566 -119.624328 62 7510ft 125kts
13-Jun-17 15:54 35.235250 -119.585670 62 7510ft 125kts
13-Jun-17 15:55 35.249972 -119.546826 62 7515ft 125kts
13-Jun-17 15:56 35.264644 -119.508066 62 7515ft 125kts
13-Jun-17 15:57 35.280567 -119.465990 62 7026ft 141kts
13-Jun-17 15:58 35.297047 -119.422263 62 6534ft 141kts
13-Jun-17 15:59 35.313798 -119.377806 62 5663ft 144kts
13-Jun-17 16:00 35.330670 -119.332988 62 4681ft 148kts
13-Jun-17 16:01 35.346497 -119.290899 62 4512ft 126kts
13-Jun-17 16:02 35.361632 -119.250651 62 4229ft 136kts
13-Jun-17 16:03 35.377704 -119.207677 62 3624ft 141kts
13-Jun-17 16:04 35.394199 -119.163697 62 2923ft 142kts
13-Jun-17 16:05 35.410376 -119.120364 62 2510ft 129kts
13-Jun-17 16:06 35.414601 -119.080930 129 1721ft 137kts
13-Jun-17 16:07 35.390966 -119.051145 139 1482ft 113kts
13-Jun-17 16:08 35.374224 -119.021410 88 1649ft 104kts
13-Jun-17 16:09 35.396488 -119.019460 333 1539ft 61kts
13-Jun-17 16:10 35.409663 -119.030398 315 1155ft 52kts
13-Jun-17 16:11 35.421015 -119.044160 315 660ft 58kts
13-Jun-17 16:12 35.427348 -119.051790 324 510ft 25kts
13-Jun-17 16:13 35.427934 -119.056330 326 510ft 0kts
13-Jun-17 16:14 35.429330 -119.056530 17 510ft 17kts
13-Jun-17 16:15 35.431459 -119.058141 308 512ft 13kts
13-Jun-17 16:16 35.434229 -119.060446 334 508ft 14kts
13-Jun-17 16:17 35.435396 -119.060053 75 510ft 0kts
13-Jun-17 16:18 35.435397 -119.060048 75 510ft 0kts

Navigation Log

Ident Type
1. KSMX Airport
2. KBFL Airport